地図

経路データ

SID SEASON NUMBER BASIN SUBBASIN NAME ISO_TIME NATURE LAT LON WMO_WIND WMO_PRES WMO_AGENCY TRACK_TYPE DIST2LAND LANDFALL IFLAG USA_AGENCY USA_ATCF_ID USA_LAT USA_LON USA_RECORD USA_STATUS USA_WIND USA_PRES USA_SSHS USA_R34_NE USA_R34_SE USA_R34_SW USA_R34_NW USA_R50_NE USA_R50_SE USA_R50_SW USA_R50_NW USA_R64_NE USA_R64_SE USA_R64_SW USA_R64_NW USA_POCI USA_ROCI USA_RMW USA_EYE TOKYO_LAT TOKYO_LON TOKYO_GRADE TOKYO_WIND TOKYO_PRES TOKYO_R50_DIR TOKYO_R50_LONG TOKYO_R50_SHORT TOKYO_R30_DIR TOKYO_R30_LONG TOKYO_R30_SHORT TOKYO_LAND CMA_LAT CMA_LON CMA_CAT CMA_WIND CMA_PRES HKO_LAT HKO_LON HKO_CAT HKO_WIND HKO_PRES NEWDELHI_LAT NEWDELHI_LON NEWDELHI_GRADE NEWDELHI_WIND NEWDELHI_PRES NEWDELHI_CI NEWDELHI_DP NEWDELHI_POCI REUNION_LAT REUNION_LON REUNION_TYPE REUNION_WIND REUNION_PRES REUNION_TNUM REUNION_CI REUNION_RMW REUNION_R34_NE REUNION_R34_SE REUNION_R34_SW REUNION_R34_NW REUNION_R50_NE REUNION_R50_SE REUNION_R50_SW REUNION_R50_NW REUNION_R64_NE REUNION_R64_SE REUNION_R64_SW REUNION_R64_NW BOM_LAT BOM_LON BOM_TYPE BOM_WIND BOM_PRES BOM_TNUM BOM_CI BOM_RMW BOM_R34_NE BOM_R34_SE BOM_R34_SW BOM_R34_NW BOM_R50_NE BOM_R50_SE BOM_R50_SW BOM_R50_NW BOM_R64_NE BOM_R64_SE BOM_R64_SW BOM_R64_NW BOM_ROCI BOM_POCI BOM_EYE BOM_POS_METHOD BOM_PRES_METHOD NADI_LAT NADI_LON NADI_CAT NADI_WIND NADI_PRES WELLINGTON_LAT WELLINGTON_LON WELLINGTON_WIND WELLINGTON_PRES DS824_LAT DS824_LON DS824_STAGE DS824_WIND DS824_PRES TD9636_LAT TD9636_LON TD9636_STAGE TD9636_WIND TD9636_PRES TD9635_LAT TD9635_LON TD9635_WIND TD9635_PRES TD9635_ROCI NEUMANN_LAT NEUMANN_LON NEUMANN_CLASS NEUMANN_WIND NEUMANN_PRES MLC_LAT MLC_LON MLC_CLASS MLC_WIND MLC_PRES USA_GUST BOM_GUST BOM_GUST_PER REUNION_GUST REUNION_GUST_PER USA_SEAHGT USA_SEARAD_NE USA_SEARAD_SE USA_SEARAD_SW USA_SEARAD_NW STORM_SPEED STORM_DIR
1910213N19087 1910 28 NI BB NOT_NAMED 1910-08-01 00:00:00 TS 19.3000 86.7000 main 84 84 _________O____ -1 19.3000 86.7000 TC 34 0 0
1910213N19087 1910 28 NI BB NOT_NAMED 1910-08-01 03:00:00 TS 19.3000 86.7000 main 84 84 _________PO___ -1 19.3000 86.7000 TC 36 19.3000 86.7000 2 0 0
1910213N19087 1910 28 NI BB NOT_NAMED 1910-08-01 06:00:00 TS 19.3056 86.7012 main 84 84 _________OP___ -1 19.3000 86.7000 TC 39 19.3141 86.7031 2 0 0
1910213N19087 1910 28 NI BB NOT_NAMED 1910-08-01 09:00:00 TS 19.3096 86.7021 main 84 84 _________PP___ -1 19.3000 86.7000 TC 42 19.3225 86.7050 2 0 0
1910213N19087 1910 28 NI BB NOT_NAMED 1910-08-01 12:00:00 TS 19.3098 86.7022 main 84 84 _________OP___ -1 19.3000 86.7000 TC 45 19.3197 86.7043 2 0 0
1910213N19087 1910 28 NI BB NOT_NAMED 1910-08-01 15:00:00 TS 19.3000 86.7000 main 84 84 _________PO___ -1 19.3000 86.7000 TC 45 19.3000 86.7000 3 0 225
1910213N19087 1910 28 NI BB NOT_NAMED 1910-08-01 18:00:00 TS 19.2817 86.6960 main 84 84 _________OP___ -1 19.3000 86.7000 TC 45 19.2634 86.6919 3 0 0
1910213N19087 1910 28 NI BB NOT_NAMED 1910-08-01 21:00:00 TS 19.2550 86.6888 main 84 84 _________PP___ -1 19.2775 86.6925 TC 45 19.2325 86.6851 3 0 0
1910213N19087 1910 28 NI BB NOT_NAMED 1910-08-02 00:00:00 TS 19.2677 86.6929 main 84 84 _________OP___ -1 19.3000 86.7000 TC 45 19.2353 86.6857 3 1 21
1910213N19087 1910 28 NI BB NOT_NAMED 1910-08-02 03:00:00 TS 19.3525 86.7213 main 74 69 _________PO___ -1 19.4050 86.7425 TC 45 19.3000 86.7000 3 3 17
1910213N19087 1910 28 NI BB NOT_NAMED 1910-08-02 06:00:00 TS 19.5322 86.7798 main 69 47 _________OP___ -1 19.6000 86.8000 TC 45 19.4644 86.7597 3 5 15
1910213N19087 1910 28 NI BB NOT_NAMED 1910-08-02 09:00:00 TS 19.7913 86.8472 main 47 30 _________PP___ -1 19.8925 86.8649 TC 45 19.6900 86.8295 3 6 11
1910213N19087 1910 28 NI BB NOT_NAMED 1910-08-02 12:00:00 TS 20.0728 86.8923 main 30 20 _________OP___ -1 20.2000 86.9000 TC 45 19.9456 86.8846 3 5 4
1910213N19087 1910 28 NI BB NOT_NAMED 1910-08-02 15:00:00 TS 20.3075 86.8900 main 20 10 _________PO___ -1 20.4150 86.8800 TC 41 20.2000 86.9000 3 4 356
1910213N19087 1910 28 NI BB NOT_NAMED 1910-08-02 18:00:00 TS 20.5013 86.8518 main 10 0 _________OP___ -1 20.6000 86.8000 TC 37 20.4026 86.9036 3 4 346
1910213N19087 1910 28 NI BB NOT_NAMED 1910-08-02 21:00:00 TS 20.6957 86.7832 main 0 0 _________PP___ -1 20.7923 86.7098 TC 33 20.5991 86.8567 3 5 331
1910213N19087 1910 28 NI BB NOT_NAMED 1910-08-03 00:00:00 TS 20.8980 86.6157 main 0 0 _________OP___ -1 21.0000 86.5000 TC 30 20.7961 86.7315 3 6 314
1910213N19087 1910 28 NI BB NOT_NAMED 1910-08-03 03:00:00 TS 21.1250 86.3013 main 0 0 _________PO___ -1 21.2501 86.1026 TC 30 21.0000 86.5000 1 8 304
1910213N19087 1910 28 NI BB NOT_NAMED 1910-08-03 06:00:00 TS 21.3653 85.8687 main 0 0 _________OP___ -1 21.5000 85.6000 TC 30 21.2305 86.1375 1 10 299
1910213N19087 1910 28 NI BB NOT_NAMED 1910-08-03 09:00:00 TS 21.5903 85.3891 main 0 0 _________PP___ -1 21.7149 85.1074 TC 30 21.4657 85.6708 1 10 295
1910213N19087 1910 28 NI BB NOT_NAMED 1910-08-03 12:00:00 TS 21.7965 84.8718 main 0 0 _________OP___ -1 21.9000 84.6000 TC 30 21.6929 85.1436 1 10 292
1910213N19087 1910 28 NI BB NOT_NAMED 1910-08-03 15:00:00 TS 21.9787 84.3499 main 0 0 _________PO___ -1 22.0573 84.0998 TC 30 21.9000 84.6000 1 10 290
1910213N19087 1910 28 NI BB NOT_NAMED 1910-08-03 18:00:00 TS 22.1397 83.8534 main 0 0 _________OP___ -1 22.2000 83.6000 TC 30 22.0793 84.1068 1 10 289
1910213N19087 1910 28 NI BB NOT_NAMED 1910-08-03 21:00:00 TS 22.2972 83.3535 main 0 0 _________PP___ -1 22.3573 83.1000 TC 30 22.2370 83.6070 1 10 288
1910213N19087 1910 28 NI BB NOT_NAMED 1910-08-04 00:00:00 TS 22.4381 82.8519 main 0 0 _________OP___ -1 22.5000 82.6000 TC 30 22.3762 83.1037 1 10 285
1910213N19087 1910 28 NI BB NOT_NAMED 1910-08-04 03:00:00 TS 22.5537 82.3499 main 0 0 _________PO___ -1 22.6073 82.0998 TC 30 22.5000 82.6000 1 9 283
1910213N19087 1910 28 NI BB NOT_NAMED 1910-08-04 06:00:00 TS 22.6448 81.8494 main 0 0 _________OP___ -1 22.7000 81.6000 TC 30 22.5895 82.0989 1 9 281
1910213N19087 1910 28 NI BB NOT_NAMED 1910-08-04 09:00:00 TS 22.7271 81.3528 main 0 0 _________PP___ -1 22.7848 81.1072 TC 30 22.6694 81.5984 1 9 281
1910213N19087 1910 28 NI BB NOT_NAMED 1910-08-04 12:00:00 TS 22.8323 80.8494 main 0 0 _________OP___ -1 22.9000 80.6000 TC 30 22.7645 81.0988 1 10 285
1910213N19087 1910 28 NI BB NOT_NAMED 1910-08-04 15:00:00 TS 22.9850 80.3212 main 0 0 _________PO___ -1 23.0700 80.0424 TC 30 22.9000 80.6000 1 11 290
1910213N19087 1910 28 NI BB NOT_NAMED 1910-08-04 18:00:00 TS 23.1955 79.7760 main 0 0 _________OP___ -1 23.3000 79.5000 TC 30 23.0910 80.0519 1 11 296
1910213N19087 1910 28 NI BB NOT_NAMED 1910-08-04 21:00:00 TS 23.4553 79.2580 main 0 0 _________PP___ -1 23.5849 79.0051 TC 30 23.3257 79.5110 1 10 302
1910213N19087 1910 28 NI BB NOT_NAMED 1910-08-05 00:00:00 TS 23.7487 78.8072 main 0 0 _________OP___ -1 23.9000 78.6000 TC 30 23.5974 79.0144 1 9 309
1910213N19087 1910 28 NI BB NOT_NAMED 1910-08-05 03:00:00 TS 24.0424 78.4524 main 0 0 _________PO___ -1 24.1848 78.3047 TC 30 23.9000 78.6000 1 8 317
1910213N19087 1910 28 NI BB NOT_NAMED 1910-08-05 06:00:00 TS 24.3602 78.1865 main 0 0 _________OP___ -1 24.5000 78.1000 TC 30 24.2205 78.2730 1 8 328
1910213N19087 1910 28 NI AS NOT_NAMED 1910-08-05 09:00:00 TS 24.7308 77.9738 main 0 0 _________PP___ -1 24.8925 77.9126 TC 30 24.5691 78.0350 1 8 338
1910213N19087 1910 28 NI AS NOT_NAMED 1910-08-05 12:00:00 TS 25.1166 77.8398 main 0 0 _________OP___ -1 25.3000 77.8000 TC 30 24.9332 77.8795 1 8 347
1910213N19087 1910 28 NI AS NOT_NAMED 1910-08-05 15:00:00 TS 25.4787 77.7812 main 0 0 _________PO___ -1 25.6575 77.7624 TC 30 25.3000 77.8000 1 7 357
1910213N19087 1910 28 NI AS NOT_NAMED 1910-08-05 18:00:00 TS 25.8052 77.7933 main 0 0 _________OP___ -1 26.0000 77.8000 TC 30 25.6591 77.7883 1 7 6
1910213N19087 1910 28 NI AS NOT_NAMED 1910-08-05 21:00:00 TS 26.1452 77.8525 main 0 0 _________PP___ -1 26.3475 77.8874 TC 30 26.0104 77.8292 1 7 11
1910213N19087 1910 28 NI AS NOT_NAMED 1910-08-06 00:00:00 TS 26.4710 77.9370 main 0 0 _________OP___ -1 26.7000 78.0000 TC 30 26.3565 77.9055 1 6 14
1910213N19087 1910 28 NI AS NOT_NAMED 1910-08-06 03:00:00 NR 26.7000 78.0000 main 0 __________O___ -1 TC 26.7000 78.0000 1 5 12

IBTrACS Databaseについて

本データベースは、米国NOAAが公開する1842年以降の世界の熱帯低気圧のベストトラックデータアーカイブInternational Best Track Archive for Climate Stewardship (IBTrACS)を、ウェブで閲覧しやすい形式に変換したものです。

最終更新日:2021-12-01